createdAt,value
2022-09-24T00:00:30.394Z,10.21
2022-09-24T00:02:41.745Z,10.24
2022-09-24T00:03:50.400Z,10.18
2022-09-24T00:05:51.727Z,10.27
2022-09-24T00:06:51.775Z,10.09
2022-09-24T00:08:03.767Z,10.14
2022-09-24T00:10:03.024Z,10.12
2022-09-24T00:11:12.185Z,10.09
2022-09-24T00:12:11.260Z,10.17
2022-09-24T00:14:15.932Z,10.14
2022-09-24T00:15:26.509Z,10.14
2022-09-24T00:16:25.459Z,10.05
2022-09-24T00:17:15.860Z,10.17
2022-09-24T00:18:15.892Z,10.14
2022-09-24T00:19:15.778Z,10.17
2022-09-24T00:20:15.788Z,10.12
2022-09-24T00:21:15.724Z,10.23
2022-09-24T00:22:15.672Z,10.14
2022-09-24T00:23:15.664Z,10.10
2022-09-24T00:24:15.662Z,10.10
2022-09-24T00:25:15.651Z,10.12
2022-09-24T00:26:15.658Z,10.16
2022-09-24T00:27:15.644Z,10.30
2022-09-24T00:28:15.696Z,10.24
2022-09-24T00:29:15.648Z,10.30
2022-09-24T00:30:15.701Z,10.30
2022-09-24T00:31:15.608Z,10.34
2022-09-24T00:32:15.561Z,10.35
2022-09-24T00:33:15.564Z,10.34
2022-09-24T00:34:15.558Z,10.38
2022-09-24T00:35:15.560Z,10.41
2022-09-24T00:36:15.593Z,10.39
2022-09-24T00:37:23.261Z,10.34
2022-09-24T00:38:15.589Z,10.39
2022-09-24T00:39:15.588Z,10.35
2022-09-24T00:40:15.715Z,10.41
2022-09-24T00:41:15.555Z,10.49
2022-09-24T00:42:15.470Z,10.55
2022-09-24T00:43:15.469Z,10.49
2022-09-24T00:44:15.446Z,10.55
2022-09-24T00:45:15.430Z,10.61
2022-09-24T00:46:15.487Z,10.65
2022-09-24T00:47:15.439Z,10.58
2022-09-24T00:48:15.416Z,10.65
2022-09-24T00:49:15.393Z,10.72
2022-09-24T00:50:15.409Z,10.70
2022-09-24T00:51:15.404Z,10.70
2022-09-24T00:52:15.385Z,10.72
2022-09-24T00:53:15.357Z,10.67
2022-09-24T00:54:15.330Z,10.68
2022-09-24T00:55:15.345Z,10.70
2022-09-24T00:56:15.331Z,10.67
2022-09-24T00:57:15.368Z,10.68
2022-09-24T00:58:15.352Z,10.72
2022-09-24T00:59:15.289Z,10.70
2022-09-24T01:00:15.276Z,10.73
2022-09-24T01:01:15.358Z,10.75
2022-09-24T01:02:23.681Z,10.75
2022-09-24T01:03:24.289Z,10.79
2022-09-24T01:05:27.989Z,10.80
2022-09-24T01:06:38.830Z,10.80
2022-09-24T01:07:35.739Z,10.73
2022-09-24T01:08:27.796Z,10.75
2022-09-24T01:09:35.248Z,10.76
2022-09-24T01:10:37.995Z,10.70
2022-09-24T01:11:27.846Z,10.67
2022-09-24T01:12:27.748Z,10.60
2022-09-24T01:13:27.725Z,10.65
2022-09-24T01:14:27.719Z,10.73
2022-09-24T01:15:27.655Z,10.78
2022-09-24T01:16:27.733Z,10.76
2022-09-24T01:17:27.630Z,10.73
2022-09-24T01:18:27.608Z,10.73
2022-09-24T01:19:27.609Z,10.82
2022-09-24T01:20:27.578Z,10.72
2022-09-24T01:21:27.569Z,10.75
2022-09-24T01:22:27.580Z,10.68
2022-09-24T01:23:27.555Z,10.67
2022-09-24T01:24:35.326Z,10.68
2022-09-24T01:26:39.066Z,10.67
2022-09-24T01:27:48.651Z,10.60
2022-09-24T01:28:50.477Z,10.68
2022-09-24T01:29:47.530Z,10.68
2022-09-24T01:31:50.374Z,10.70
2022-09-24T01:32:59.251Z,10.68
2022-09-24T01:33:59.237Z,10.67
2022-09-24T01:34:50.385Z,10.70
2022-09-24T01:35:59.012Z,10.70
2022-09-24T01:37:00.875Z,10.62
2022-09-24T01:37:57.861Z,10.61
2022-09-24T01:38:50.231Z,10.61
2022-09-24T01:39:59.124Z,10.65
2022-09-24T01:40:50.315Z,10.62
2022-09-24T01:41:50.189Z,10.64
2022-09-24T01:42:50.314Z,10.60
2022-09-24T01:43:50.113Z,10.65
2022-09-24T01:44:50.047Z,10.68
2022-09-24T01:47:00.607Z,10.80
2022-09-24T01:48:09.297Z,10.75
2022-09-24T01:49:10.080Z,10.80
2022-09-24T01:51:11.961Z,10.85
2022-09-24T01:52:20.426Z,10.82
2022-09-24T01:54:22.315Z,10.85
2022-09-24T01:55:32.341Z,10.93
2022-09-24T01:57:33.831Z,10.95
2022-09-24T01:58:43.261Z,10.86
2022-09-24T02:00:45.294Z,10.83
2022-09-24T02:01:45.165Z,10.98
2022-09-24T02:02:54.634Z,10.94
2022-09-24T02:03:45.042Z,10.87
2022-09-24T02:04:54.728Z,10.97
2022-09-24T02:05:54.612Z,10.87
2022-09-24T02:06:45.010Z,10.94
2022-09-24T02:07:54.250Z,10.94
2022-09-24T02:09:56.450Z,10.83
2022-09-24T02:10:56.445Z,10.94
2022-09-24T02:11:56.396Z,10.94
2022-09-24T02:12:56.402Z,10.95
2022-09-24T02:13:56.274Z,10.85
2022-09-24T02:14:56.217Z,10.80
2022-09-24T02:15:56.286Z,10.97
2022-09-24T02:16:56.231Z,10.82
2022-09-24T02:17:56.194Z,10.85
2022-09-24T02:18:56.180Z,10.94
2022-09-24T02:19:56.184Z,11.00
2022-09-24T02:21:04.053Z,10.85
2022-09-24T02:21:56.265Z,11.00
2022-09-24T02:23:04.399Z,10.91
2022-09-24T02:23:56.314Z,10.87
2022-09-24T02:24:56.229Z,10.93
2022-09-24T02:25:56.186Z,10.93
2022-09-24T02:26:56.243Z,10.87
2022-09-24T02:27:56.138Z,10.98
2022-09-24T02:28:56.080Z,10.93
2022-09-24T02:29:56.062Z,10.83
2022-09-24T02:30:56.229Z,10.87
2022-09-24T02:31:56.247Z,10.95
2022-09-24T02:32:56.025Z,10.87
2022-09-24T02:33:56.017Z,10.95
2022-09-24T02:34:56.037Z,10.87
2022-09-24T02:35:56.010Z,10.90
2022-09-24T02:36:56.054Z,10.90
2022-09-24T02:37:56.032Z,11.05
2022-09-24T02:38:55.980Z,10.93
2022-09-24T02:39:55.976Z,11.00
2022-09-24T02:40:56.033Z,10.95
2022-09-24T02:41:55.942Z,10.85
2022-09-24T02:42:55.954Z,11.00
2022-09-24T02:43:55.964Z,11.00
2022-09-24T02:44:55.930Z,10.87
2022-09-24T02:45:55.889Z,11.00
2022-09-24T02:46:56.086Z,10.93
2022-09-24T02:48:04.293Z,10.93
2022-09-24T02:48:56.028Z,10.83
2022-09-24T02:49:55.945Z,11.00
2022-09-24T02:50:55.919Z,10.91
2022-09-24T02:52:06.617Z,10.94
2022-09-24T02:52:55.976Z,10.91
2022-09-24T02:54:05.140Z,10.90
2022-09-24T02:55:04.896Z,10.98
2022-09-24T02:56:03.579Z,10.97
2022-09-24T02:58:07.318Z,10.86
2022-09-24T03:00:18.655Z,10.91
2022-09-24T03:01:28.768Z,10.93
2022-09-24T03:02:18.677Z,10.93
2022-09-24T03:03:29.867Z,10.90
2022-09-24T03:04:27.248Z,10.79
2022-09-24T03:06:29.701Z,10.90
2022-09-24T03:08:40.870Z,10.87
2022-09-24T03:09:49.929Z,10.83
2022-09-24T03:10:40.810Z,10.85
2022-09-24T03:11:40.841Z,10.91
2022-09-24T03:13:54.507Z,10.87
2022-09-24T03:15:04.356Z,10.91
2022-09-24T03:16:03.398Z,10.91
2022-09-24T03:16:54.473Z,10.91
2022-09-24T03:17:54.402Z,10.90
2022-09-24T03:18:54.432Z,10.93
2022-09-24T03:19:54.359Z,10.98
2022-09-24T03:20:54.305Z,10.93
2022-09-24T03:21:54.248Z,10.95
2022-09-24T03:23:02.890Z,10.90
2022-09-24T03:23:54.329Z,11.00
2022-09-24T03:24:54.386Z,10.87
2022-09-24T03:25:54.302Z,10.94
2022-09-24T03:26:54.397Z,10.94
2022-09-24T03:27:54.250Z,10.94
2022-09-24T03:28:54.185Z,10.93
2022-09-24T03:30:01.885Z,11.05
2022-09-24T03:30:54.394Z,10.91
2022-09-24T03:31:54.307Z,10.90
2022-09-24T03:33:02.905Z,11.00
2022-09-24T03:33:54.260Z,10.97
2022-09-24T03:34:54.241Z,10.93
2022-09-24T03:35:54.218Z,10.91
2022-09-24T03:36:54.244Z,10.86
2022-09-24T03:37:54.135Z,10.94
2022-09-24T03:38:54.116Z,10.85
2022-09-24T03:39:54.070Z,10.82
2022-09-24T03:40:54.150Z,10.97
2022-09-24T03:41:54.078Z,10.91
2022-09-24T03:42:54.050Z,10.87
2022-09-24T03:43:54.054Z,11.01
2022-09-24T03:44:54.014Z,10.94
2022-09-24T03:45:54.035Z,10.90
2022-09-24T03:46:54.118Z,11.01
2022-09-24T03:47:54.011Z,10.93
2022-09-24T03:49:04.818Z,10.98
2022-09-24T03:50:01.991Z,10.97
2022-09-24T03:50:54.057Z,10.90
2022-09-24T03:51:53.998Z,10.95
2022-09-24T03:53:03.958Z,10.86
2022-09-24T03:53:54.023Z,10.86
2022-09-24T03:55:03.767Z,10.97
2022-09-24T03:55:53.982Z,10.87
2022-09-24T03:56:53.953Z,10.87
2022-09-24T03:58:04.543Z,10.91
2022-09-24T03:58:54.035Z,10.90
2022-09-24T03:59:54.052Z,10.90
2022-09-24T04:00:53.947Z,10.93
2022-09-24T04:01:53.980Z,10.93
2022-09-24T04:02:53.937Z,10.90
2022-09-24T04:04:03.146Z,10.95
2022-09-24T04:04:53.971Z,10.93
2022-09-24T04:05:53.930Z,10.98
2022-09-24T04:06:53.861Z,11.01
2022-09-24T04:08:02.494Z,10.97
2022-09-24T04:08:53.886Z,10.93
2022-09-24T04:09:53.819Z,10.95
2022-09-24T04:10:53.936Z,10.90
2022-09-24T04:11:53.742Z,10.93
2022-09-24T04:12:53.718Z,10.93
2022-09-24T04:14:02.408Z,10.95
2022-09-24T04:14:53.750Z,10.95
2022-09-24T04:15:53.875Z,10.83
2022-09-24T04:16:53.767Z,10.93
2022-09-24T04:18:02.892Z,11.01
2022-09-24T04:18:53.847Z,10.80
2022-09-24T04:19:53.762Z,10.95
2022-09-24T04:21:01.738Z,10.93
2022-09-24T04:23:06.168Z,10.83
2022-09-24T04:24:06.116Z,10.85
2022-09-24T04:25:14.934Z,10.87
2022-09-24T04:26:13.646Z,10.83
2022-09-24T04:27:16.002Z,10.79
2022-09-24T04:28:14.766Z,10.67
2022-09-24T04:29:14.776Z,10.57
2022-09-24T04:30:15.044Z,10.65
2022-09-24T04:31:14.837Z,10.49
2022-09-24T04:33:24.567Z,10.48
2022-09-24T04:34:33.640Z,10.45
2022-09-24T04:36:35.955Z,10.39
2022-09-24T04:37:44.597Z,10.38
2022-09-24T04:38:46.188Z,10.34
2022-09-24T04:39:44.627Z,10.27
2022-09-24T04:41:48.386Z,10.16
2022-09-24T04:44:00.101Z,10.18
2022-09-24T04:46:11.548Z,10.10
2022-09-24T04:47:22.076Z,10.03
2022-09-24T04:49:05.845Z,10.02
2022-09-24T04:50:15.705Z,9.88
2022-09-24T04:52:18.331Z,9.85
2022-09-24T04:54:30.790Z,9.78
2022-09-24T04:55:41.357Z,9.83
2022-09-24T04:56:30.610Z,9.78
2022-09-24T04:57:30.559Z,9.83
2022-09-24T04:58:30.578Z,9.87
2022-09-24T04:59:30.536Z,9.90
2022-09-24T05:00:30.463Z,9.94
2022-09-24T05:01:38.242Z,9.93
2022-09-24T05:02:39.357Z,9.98
2022-09-24T05:03:30.589Z,10.03
2022-09-24T05:04:39.170Z,10.03
2022-09-24T05:06:42.051Z,10.08
2022-09-24T05:07:50.873Z,10.10
2022-09-24T05:08:50.485Z,10.14
2022-09-24T05:09:41.837Z,10.17
2022-09-24T05:10:50.507Z,10.16
2022-09-24T05:11:41.810Z,10.16
2022-09-24T05:12:41.789Z,10.14
2022-09-24T05:13:41.904Z,10.16
2022-09-24T05:14:41.709Z,10.16
2022-09-24T05:15:43.351Z,10.18
2022-09-24T05:16:41.710Z,10.12
2022-09-24T05:17:41.694Z,10.20
2022-09-24T05:18:41.677Z,10.20
2022-09-24T05:19:41.642Z,10.23
2022-09-24T05:20:41.680Z,10.27
2022-09-24T05:21:41.642Z,10.30
2022-09-24T05:22:41.615Z,10.23
2022-09-24T05:23:41.584Z,10.18
2022-09-24T05:24:41.577Z,10.24
2022-09-24T05:25:41.577Z,10.30
2022-09-24T05:26:41.564Z,10.26
2022-09-24T05:27:41.563Z,10.31
2022-09-24T05:28:41.615Z,10.12
2022-09-24T05:29:41.529Z,10.16
2022-09-24T05:30:41.523Z,10.17
2022-09-24T05:31:41.541Z,10.10
2022-09-24T05:32:41.479Z,10.24
2022-09-24T05:33:41.485Z,10.18
2022-09-24T05:34:41.478Z,10.18
2022-09-24T05:35:41.471Z,10.14
2022-09-24T05:36:41.454Z,10.12
2022-09-24T05:37:41.438Z,10.09
2022-09-24T05:38:41.955Z,10.16
2022-09-24T05:39:41.414Z,10.17
2022-09-24T05:40:41.425Z,10.21
2022-09-24T05:41:41.399Z,10.23
2022-09-24T05:42:41.426Z,10.28
2022-09-24T05:43:41.423Z,10.26
2022-09-24T05:44:41.360Z,10.31
2022-09-24T05:45:41.365Z,10.34
2022-09-24T05:46:41.433Z,10.28
2022-09-24T05:47:41.342Z,10.38
2022-09-24T05:48:41.336Z,10.38
2022-09-24T05:49:41.309Z,10.34
2022-09-24T05:50:41.302Z,10.41
2022-09-24T05:51:41.322Z,10.46
2022-09-24T05:52:41.275Z,10.41
2022-09-24T05:53:41.304Z,10.46
2022-09-24T05:54:41.265Z,10.55
2022-09-24T05:55:41.244Z,10.58
2022-09-24T05:56:41.234Z,10.55
2022-09-24T05:57:41.220Z,10.62
2022-09-24T05:58:41.215Z,10.72
2022-09-24T05:59:41.206Z,10.78
2022-09-24T06:00:41.200Z,10.72
2022-09-24T06:01:41.240Z,10.85
2022-09-24T06:02:41.205Z,10.95
2022-09-24T06:03:41.158Z,10.91
2022-09-24T06:04:41.167Z,10.90
2022-09-24T06:05:41.148Z,11.03
2022-09-24T06:06:41.129Z,11.12
2022-09-24T06:07:41.127Z,11.16
2022-09-24T06:08:41.102Z,11.12
2022-09-24T06:09:41.099Z,11.16
2022-09-24T06:10:41.112Z,11.20
2022-09-24T06:11:41.346Z,11.28
2022-09-24T06:12:41.073Z,11.31
2022-09-24T06:13:48.761Z,11.38
2022-09-24T06:14:41.102Z,11.43
2022-09-24T06:15:41.121Z,11.54
2022-09-24T06:16:41.168Z,11.56
2022-09-24T06:17:41.104Z,11.48
2022-09-24T06:18:41.009Z,11.64
2022-09-24T06:19:40.979Z,11.62
2022-09-24T06:20:40.985Z,11.56
2022-09-24T06:21:40.982Z,11.62
2022-09-24T06:22:40.970Z,11.58
2022-09-24T06:23:40.975Z,11.56
2022-09-24T06:24:40.936Z,11.56
2022-09-24T06:25:40.936Z,11.61
2022-09-24T06:26:40.911Z,11.73
2022-09-24T06:27:40.945Z,11.73
2022-09-24T06:28:40.891Z,11.74
2022-09-24T06:29:40.883Z,11.69
2022-09-24T06:30:40.864Z,11.67
2022-09-24T06:31:40.946Z,11.67
2022-09-24T06:32:40.852Z,11.67
2022-09-24T06:33:40.838Z,11.87
2022-09-24T06:34:40.832Z,11.73
2022-09-24T06:35:40.846Z,11.73
2022-09-24T06:36:40.805Z,11.84
2022-09-24T06:37:40.809Z,11.76
2022-09-24T06:38:40.775Z,11.84
2022-09-24T06:39:40.880Z,11.89
2022-09-24T06:40:40.807Z,11.96
2022-09-24T06:41:40.776Z,12.14
2022-09-24T06:42:40.752Z,12.13
2022-09-24T06:43:40.730Z,12.23
2022-09-24T06:44:40.792Z,12.18
2022-09-24T06:45:40.702Z,12.22
2022-09-24T06:46:40.738Z,12.18
2022-09-24T06:47:40.681Z,12.21
2022-09-24T06:48:40.672Z,12.33
2022-09-24T06:49:40.751Z,12.32
2022-09-24T06:50:40.663Z,12.25
2022-09-24T06:51:40.650Z,12.21
2022-09-24T06:52:50.084Z,12.15
2022-09-24T06:53:40.730Z,12.18
2022-09-24T06:54:40.724Z,12.17
2022-09-24T06:55:49.237Z,12.25
2022-09-24T06:56:40.705Z,12.23
2022-09-24T06:57:40.678Z,12.26
2022-09-24T06:58:40.662Z,12.29
2022-09-24T06:59:40.726Z,12.47
2022-09-24T07:00:40.693Z,12.43
2022-09-24T07:01:40.812Z,12.55
2022-09-24T07:02:40.804Z,12.53
2022-09-24T07:03:40.545Z,12.61
2022-09-24T07:04:40.490Z,12.58
2022-09-24T07:05:43.513Z,12.69
2022-09-24T07:06:40.515Z,12.66
2022-09-24T07:07:40.478Z,12.54
2022-09-24T07:08:40.458Z,12.50
2022-09-24T07:09:40.439Z,12.61
2022-09-24T07:10:40.455Z,12.66
2022-09-24T07:11:40.438Z,12.63
2022-09-24T07:12:40.491Z,12.73
2022-09-24T07:13:40.417Z,12.62
2022-09-24T07:14:40.402Z,12.63
2022-09-24T07:15:40.389Z,12.79
2022-09-24T07:16:40.367Z,12.72
2022-09-24T07:17:40.359Z,12.73
2022-09-24T07:18:40.395Z,12.71
2022-09-24T07:19:40.332Z,12.79
2022-09-24T07:20:40.329Z,12.71
2022-09-24T07:21:40.309Z,12.83
2022-09-24T07:22:40.307Z,12.77
2022-09-24T07:23:40.304Z,12.76
2022-09-24T07:24:40.279Z,12.77
2022-09-24T07:25:40.301Z,12.88
2022-09-24T07:26:40.270Z,12.90
2022-09-24T07:27:40.264Z,12.93
2022-09-24T07:28:40.242Z,12.95
2022-09-24T07:29:40.231Z,12.95
2022-09-24T07:30:40.230Z,12.95
2022-09-24T07:31:40.231Z,13.01
2022-09-24T07:32:40.201Z,13.09
2022-09-24T07:33:40.209Z,13.11
2022-09-24T07:34:40.176Z,13.14
2022-09-24T07:35:40.160Z,13.16
2022-09-24T07:36:40.157Z,13.26
2022-09-24T07:37:40.140Z,13.30
2022-09-24T07:38:40.143Z,13.19
2022-09-24T07:39:40.178Z,13.24
2022-09-24T07:40:40.202Z,13.29
2022-09-24T07:41:42.293Z,13.35
2022-09-24T07:42:40.099Z,13.38
2022-09-24T07:43:40.108Z,13.46
2022-09-24T07:44:40.067Z,13.32
2022-09-24T07:45:40.090Z,13.36
2022-09-24T07:46:40.114Z,13.45
2022-09-24T07:47:40.038Z,13.40
2022-09-24T07:48:40.038Z,13.47
2022-09-24T07:49:40.024Z,13.38
2022-09-24T07:50:40.009Z,13.54
2022-09-24T07:51:40.001Z,13.63
2022-09-24T07:52:39.989Z,13.65
2022-09-24T07:53:50.130Z,13.72
2022-09-24T07:54:40.048Z,13.80
2022-09-24T07:55:40.061Z,13.91
2022-09-24T07:56:40.013Z,13.85
2022-09-24T07:57:40.042Z,13.94
2022-09-24T07:58:39.989Z,13.85
2022-09-24T07:59:39.927Z,13.83
2022-09-24T08:00:39.911Z,13.94
2022-09-24T08:01:39.957Z,14.00
2022-09-24T08:02:39.879Z,13.96
2022-09-24T08:03:39.941Z,13.91
2022-09-24T08:04:39.883Z,13.93
2022-09-24T08:05:39.846Z,13.79
2022-09-24T08:06:45.006Z,13.61
2022-09-24T08:07:40.814Z,13.49
2022-09-24T08:08:39.805Z,13.55
2022-09-24T08:09:39.793Z,13.46
2022-09-24T08:10:39.794Z,13.49
2022-09-24T08:11:39.776Z,13.49
2022-09-24T08:12:39.776Z,13.47
2022-09-24T08:13:39.756Z,13.60
2022-09-24T08:14:47.493Z,13.60
2022-09-24T08:16:51.714Z,13.82
2022-09-24T08:17:51.715Z,13.83
2022-09-24T08:18:51.587Z,13.97
2022-09-24T08:19:51.630Z,14.04
2022-09-24T08:20:51.537Z,14.18
2022-09-24T08:21:51.540Z,14.26
2022-09-24T08:22:51.545Z,14.36
2022-09-24T08:23:51.512Z,14.38
2022-09-24T08:24:51.511Z,14.51
2022-09-24T08:25:51.486Z,14.52
2022-09-24T08:26:51.490Z,14.74
2022-09-24T08:27:51.464Z,14.85
2022-09-24T08:28:51.474Z,14.99
2022-09-24T08:29:51.457Z,15.07
2022-09-24T08:30:51.529Z,15.17
2022-09-24T08:31:51.439Z,15.04
2022-09-24T08:32:51.404Z,15.07
2022-09-24T08:33:51.424Z,15.07
2022-09-24T08:34:52.788Z,14.93
2022-09-24T08:35:51.388Z,14.96
2022-09-24T08:36:51.367Z,15.14
2022-09-24T08:37:51.362Z,15.38
2022-09-24T08:38:51.342Z,15.35
2022-09-24T08:39:51.341Z,15.56
2022-09-24T08:40:51.361Z,15.72
2022-09-24T08:41:51.338Z,15.90
2022-09-24T08:42:51.298Z,16.05
2022-09-24T08:43:51.286Z,16.24
2022-09-24T08:44:51.296Z,16.34
2022-09-24T08:45:51.305Z,16.32
2022-09-24T08:46:51.357Z,16.40
2022-09-24T08:47:51.245Z,16.55
2022-09-24T08:48:51.241Z,16.34
2022-09-24T08:49:51.241Z,16.21
2022-09-24T08:50:51.233Z,16.22
2022-09-24T08:51:51.211Z,16.32
2022-09-24T08:52:51.191Z,16.22
2022-09-24T08:53:51.193Z,16.39
2022-09-24T08:54:51.188Z,16.26
2022-09-24T08:55:51.162Z,16.37
2022-09-24T08:56:51.156Z,16.34
2022-09-24T08:57:51.154Z,16.37
2022-09-24T08:58:51.135Z,16.52
2022-09-24T08:59:51.123Z,16.55
2022-09-24T09:00:51.115Z,16.70
2022-09-24T09:01:51.279Z,16.77
2022-09-24T09:02:51.128Z,16.73
2022-09-24T09:03:51.107Z,16.70
2022-09-24T09:04:51.070Z,16.62
2022-09-24T09:05:51.060Z,16.57
2022-09-24T09:06:51.040Z,16.58
2022-09-24T09:07:51.033Z,16.55
2022-09-24T09:09:06.386Z,16.43
2022-09-24T09:09:52.033Z,16.34
2022-09-24T09:10:51.013Z,16.17
2022-09-24T09:11:50.989Z,16.17
2022-09-24T09:12:50.982Z,16.00
2022-09-24T09:13:50.971Z,15.95
2022-09-24T09:14:50.966Z,15.85
2022-09-24T09:15:51.021Z,15.80
2022-09-24T09:16:50.943Z,15.78
2022-09-24T09:17:50.953Z,15.68
2022-09-24T09:18:50.919Z,15.68
2022-09-24T09:19:53.730Z,15.83
2022-09-24T09:20:50.888Z,15.93
2022-09-24T09:21:50.893Z,16.03
2022-09-24T09:22:50.881Z,15.96
2022-09-24T09:23:50.858Z,15.95
2022-09-24T09:24:50.855Z,16.00
2022-09-24T09:25:50.875Z,15.91
2022-09-24T09:26:50.837Z,15.96
2022-09-24T09:27:50.842Z,15.96
2022-09-24T09:28:50.834Z,15.93
2022-09-24T09:29:50.810Z,15.78
2022-09-24T09:30:50.987Z,15.69
2022-09-24T09:31:55.993Z,15.62
2022-09-24T09:32:51.801Z,15.66
2022-09-24T09:33:50.874Z,15.70
2022-09-24T09:34:50.752Z,15.63
2022-09-24T09:35:50.774Z,15.70
2022-09-24T09:36:50.730Z,15.72
2022-09-24T09:37:50.726Z,15.78
2022-09-24T09:38:50.701Z,15.80
2022-09-24T09:39:50.692Z,15.73
2022-09-24T09:40:50.839Z,15.54
2022-09-24T09:41:50.674Z,15.38
2022-09-24T09:42:50.660Z,15.45
2022-09-24T09:43:50.670Z,15.32
2022-09-24T09:44:50.649Z,15.25
2022-09-24T09:45:50.654Z,15.27
2022-09-24T09:46:50.708Z,15.25
2022-09-24T09:47:50.646Z,15.29
2022-09-24T09:48:50.607Z,15.36
2022-09-24T09:49:50.611Z,15.45
2022-09-24T09:50:50.570Z,15.50
2022-09-24T09:51:50.566Z,15.59
2022-09-24T09:52:50.592Z,15.58
2022-09-24T09:53:50.550Z,15.59
2022-09-24T09:54:50.558Z,15.58
2022-09-24T09:55:50.511Z,15.51
2022-09-24T09:56:50.517Z,15.44
2022-09-24T09:57:50.508Z,15.36
2022-09-24T09:58:50.495Z,15.38
2022-09-24T09:59:50.483Z,15.47
2022-09-24T10:00:50.492Z,15.36
2022-09-24T10:01:50.492Z,15.45
2022-09-24T10:02:50.633Z,15.51
2022-09-24T10:03:50.431Z,15.40
2022-09-24T10:04:52.158Z,15.32
2022-09-24T10:05:50.429Z,15.33
2022-09-24T10:06:50.414Z,15.45
2022-09-24T10:07:50.383Z,15.58
2022-09-24T10:08:50.371Z,15.56
2022-09-24T10:09:50.381Z,15.54
2022-09-24T10:10:50.365Z,15.60
2022-09-24T10:11:50.348Z,15.43
2022-09-24T10:12:50.334Z,15.40
2022-09-24T10:13:50.323Z,15.36
2022-09-24T10:14:50.331Z,15.43
2022-09-24T10:15:50.441Z,15.33
2022-09-24T10:16:50.358Z,15.44
2022-09-24T10:17:50.281Z,15.40
2022-09-24T10:18:50.266Z,15.48
2022-09-24T15:19:22.042Z,16.55
2022-09-24T15:20:21.952Z,16.58
2022-09-24T15:21:21.937Z,16.62
2022-09-24T15:22:21.944Z,16.62
2022-09-24T15:23:21.886Z,16.51
2022-09-24T15:24:21.865Z,16.54
2022-09-24T15:25:21.880Z,16.49
2022-09-24T15:26:21.844Z,16.46
2022-09-24T15:27:21.829Z,16.34
2022-09-24T15:28:21.833Z,16.33
2022-09-24T15:29:21.813Z,16.25
2022-09-24T15:30:21.816Z,16.32
2022-09-24T15:31:21.867Z,16.26
2022-09-24T15:32:21.771Z,16.37
2022-09-24T15:33:21.777Z,16.40
2022-09-24T15:34:21.756Z,16.29
2022-09-24T15:35:21.786Z,16.33
2022-09-24T15:36:21.736Z,16.32
2022-09-24T15:37:21.726Z,16.32
2022-09-24T15:38:21.720Z,16.33
2022-09-24T15:39:21.707Z,16.17
2022-09-24T15:40:21.743Z,16.29
2022-09-24T15:41:21.690Z,16.34
2022-09-24T15:42:21.665Z,16.34
2022-09-24T15:43:21.654Z,16.25
2022-09-24T15:44:21.658Z,16.34
2022-09-24T15:45:21.649Z,16.24
2022-09-24T15:46:21.804Z,16.25
2022-09-24T15:47:21.629Z,16.26
2022-09-24T15:48:21.611Z,16.24
2022-09-24T15:49:21.594Z,16.24
2022-09-24T15:50:21.589Z,16.17
2022-09-24T15:51:21.598Z,16.13
2022-09-24T15:52:21.587Z,16.10
2022-09-24T15:53:21.560Z,16.08
2022-09-24T15:54:21.550Z,16.09
2022-09-24T15:55:21.535Z,16.06
2022-09-24T15:56:21.525Z,15.99
2022-09-24T15:57:21.535Z,16.05
2022-09-24T15:58:21.521Z,15.90
2022-09-24T15:59:21.501Z,15.91
2022-09-24T16:00:21.480Z,15.98
2022-09-24T16:01:21.493Z,15.84
2022-09-24T16:02:21.553Z,15.95
2022-09-24T16:03:21.476Z,15.88
2022-09-24T16:04:21.451Z,15.80
2022-09-24T16:05:21.436Z,15.84
2022-09-24T16:06:21.421Z,15.87
2022-09-24T16:07:21.432Z,15.77
2022-09-24T16:08:21.404Z,15.72
2022-09-24T16:09:21.425Z,15.72
2022-09-24T16:10:21.390Z,15.81
2022-09-24T16:11:21.365Z,15.78
2022-09-24T16:12:21.357Z,15.87
2022-09-24T16:13:21.350Z,15.84
2022-09-24T16:14:21.340Z,15.76
2022-09-24T16:15:21.352Z,15.70
2022-09-24T16:16:21.354Z,15.66
2022-09-24T16:17:21.310Z,15.76
2022-09-24T16:18:21.299Z,15.59
2022-09-24T16:19:28.931Z,15.60
2022-09-24T16:20:21.366Z,15.59
2022-09-24T16:21:21.320Z,15.60
2022-09-24T16:22:21.347Z,15.59
2022-09-24T16:23:21.351Z,15.60
2022-09-24T16:24:21.236Z,15.56
2022-09-24T16:25:21.234Z,15.45
2022-09-24T16:26:21.229Z,15.51
2022-09-24T16:27:21.203Z,15.50
2022-09-24T16:28:21.189Z,15.48
2022-09-24T16:29:21.188Z,15.45
2022-09-24T16:30:21.163Z,15.44
2022-09-24T16:31:21.276Z,15.44
2022-09-24T16:32:21.151Z,15.40
2022-09-24T16:33:21.132Z,15.41
2022-09-24T16:34:21.138Z,15.29
2022-09-24T16:35:21.114Z,15.30
2022-09-24T16:36:21.107Z,15.38
2022-09-24T16:37:21.120Z,15.27
2022-09-24T16:38:23.068Z,15.20
2022-09-24T16:39:21.103Z,15.23
2022-09-24T16:40:21.147Z,15.15
2022-09-24T16:41:21.049Z,15.19
2022-09-24T16:42:21.035Z,15.11
2022-09-24T16:43:21.040Z,15.11
2022-09-24T16:44:21.016Z,15.07
2022-09-24T16:45:21.016Z,15.05
2022-09-24T16:46:21.111Z,15.03
2022-09-24T16:47:20.995Z,14.97
2022-09-24T16:48:20.978Z,15.04
2022-09-24T16:49:20.978Z,14.92
2022-09-24T16:50:21.014Z,15.01
2022-09-24T16:51:20.947Z,15.01
2022-09-24T16:52:20.951Z,14.90
2022-09-24T16:53:20.923Z,14.96
2022-09-24T16:54:20.915Z,14.96
2022-09-24T16:55:21.007Z,15.03
2022-09-24T16:56:20.891Z,14.92
2022-09-24T16:57:20.883Z,14.92
2022-09-24T16:58:20.890Z,14.92
2022-09-24T16:59:20.875Z,14.95
2022-09-24T17:00:20.861Z,14.93
2022-09-24T17:01:20.930Z,14.86
2022-09-24T17:02:20.894Z,14.96
2022-09-24T17:03:20.929Z,14.85
2022-09-24T17:04:22.541Z,14.89
2022-09-24T17:05:20.820Z,14.96
2022-09-24T17:06:20.780Z,14.90
2022-09-24T17:07:20.783Z,14.90
2022-09-24T17:08:20.766Z,14.86
2022-09-24T17:09:20.756Z,14.92
2022-09-24T17:10:20.766Z,14.85
2022-09-24T17:11:20.747Z,14.89
2022-09-24T17:12:20.723Z,14.92
2022-09-24T17:13:20.709Z,14.85
2022-09-24T17:14:20.698Z,14.85
2022-09-24T17:15:20.828Z,14.77
2022-09-24T17:16:20.744Z,14.78
2022-09-24T17:17:20.664Z,14.77
2022-09-24T17:18:20.664Z,14.70
2022-09-24T17:19:20.651Z,14.69
2022-09-24T17:20:20.634Z,14.77
2022-09-24T17:21:20.639Z,14.70
2022-09-24T17:22:20.629Z,14.69
2022-09-24T17:23:20.603Z,14.66
2022-09-24T17:24:22.156Z,14.67
2022-09-24T17:25:20.591Z,14.64
2022-09-24T17:26:20.589Z,14.53
2022-09-24T17:27:20.577Z,14.64
2022-09-24T17:28:20.593Z,14.58
2022-09-24T17:29:20.661Z,14.61
2022-09-24T17:30:20.532Z,14.55
2022-09-24T17:31:20.582Z,14.48
2022-09-24T17:32:20.509Z,14.49
2022-09-24T17:33:43.014Z,14.51
2022-09-24T17:34:21.574Z,14.48
2022-09-24T17:35:20.549Z,14.49
2022-09-24T17:36:20.551Z,14.45
2022-09-24T17:37:20.496Z,14.49
2022-09-24T17:38:20.573Z,14.64
2022-09-24T17:39:20.453Z,14.49
2022-09-24T17:40:24.049Z,14.49
2022-09-24T17:41:20.439Z,14.56
2022-09-24T17:42:20.400Z,14.48
2022-09-24T17:43:20.410Z,14.51
2022-09-24T17:44:20.413Z,14.51
2022-09-24T17:45:20.677Z,14.52
2022-09-24T17:46:20.445Z,14.51
2022-09-24T17:47:20.345Z,14.53
2022-09-24T17:48:20.352Z,14.44
2022-09-24T17:49:20.358Z,14.49
2022-09-24T17:50:20.331Z,14.52
2022-09-24T17:51:20.318Z,14.48
2022-09-24T17:52:20.296Z,14.48
2022-09-24T17:53:20.298Z,14.44
2022-09-24T17:54:20.308Z,14.51
2022-09-24T17:55:20.300Z,14.46
2022-09-24T17:56:20.270Z,14.46
2022-09-24T17:57:20.259Z,14.36
2022-09-24T17:58:20.240Z,14.45
2022-09-24T17:59:30.211Z,14.38
2022-09-24T18:00:20.326Z,14.34
2022-09-24T18:01:20.327Z,14.41
2022-09-24T18:02:20.344Z,14.31
2022-09-24T18:03:20.209Z,14.34
2022-09-24T18:04:20.192Z,14.36
2022-09-24T18:05:20.173Z,14.33
2022-09-24T18:06:20.186Z,14.36
2022-09-24T18:07:20.147Z,14.34
2022-09-24T18:08:20.146Z,14.37
2022-09-24T18:09:20.157Z,14.37
2022-09-24T18:10:20.127Z,14.28
2022-09-24T18:11:20.122Z,14.31
2022-09-24T18:12:20.093Z,14.36
2022-09-24T18:13:20.087Z,14.30
2022-09-24T18:14:20.070Z,14.28
2022-09-24T18:15:20.167Z,14.28
2022-09-24T18:16:20.129Z,14.31
2022-09-24T18:17:20.039Z,14.26
2022-09-24T18:18:20.062Z,14.16
2022-09-24T18:19:20.046Z,14.23
2022-09-24T18:20:20.009Z,14.26
2022-09-24T18:21:20.027Z,14.23
2022-09-24T18:22:20.000Z,14.19
2022-09-24T18:23:19.976Z,14.18
2022-09-24T18:24:19.968Z,14.18
2022-09-24T18:25:19.949Z,14.21
2022-09-24T18:26:19.970Z,14.15
2022-09-24T18:27:19.942Z,14.21